createdAt,value
2024-03-08T00:00:20.380Z,1.88
2024-03-08T00:03:09.145Z,1.88
2024-03-08T00:05:39.891Z,1.85
2024-03-08T00:08:11.083Z,1.84
2024-03-08T00:10:40.119Z,1.83
2024-03-08T00:13:08.108Z,1.81
2024-03-08T00:15:36.082Z,1.81
2024-03-08T00:18:04.275Z,1.80
2024-03-08T00:20:32.090Z,1.82
2024-03-08T00:23:00.223Z,1.83
2024-03-08T00:25:28.847Z,1.84
2024-03-08T00:28:01.164Z,1.83
2024-03-08T00:30:29.078Z,1.82
2024-03-08T00:32:56.912Z,1.82
2024-03-08T00:35:25.354Z,1.81
2024-03-08T00:37:53.107Z,1.81
2024-03-08T00:40:20.971Z,1.81
2024-03-08T00:42:48.670Z,1.81
2024-03-08T00:45:16.394Z,1.79
2024-03-08T00:47:45.655Z,1.74
2024-03-08T00:50:14.232Z,1.69
2024-03-08T00:52:42.152Z,1.66
2024-03-08T00:55:12.044Z,1.65
2024-03-08T00:57:39.880Z,1.63
2024-03-08T01:00:13.879Z,1.61
2024-03-08T01:02:42.011Z,1.61
2024-03-08T01:05:10.259Z,1.60
2024-03-08T01:07:37.883Z,1.61
2024-03-08T01:10:10.671Z,1.60
2024-03-08T01:12:40.372Z,1.60
2024-03-08T01:15:08.621Z,1.60
2024-03-08T01:17:36.764Z,1.59
2024-03-08T01:20:06.026Z,1.60
2024-03-08T01:22:33.677Z,1.60
2024-03-08T01:25:01.382Z,1.61
2024-03-08T01:27:29.017Z,1.61
2024-03-08T01:29:56.734Z,1.61
2024-03-08T01:32:24.869Z,1.61
2024-03-08T01:34:52.547Z,1.59
2024-03-08T01:37:21.093Z,1.56
2024-03-08T01:39:48.753Z,1.55
2024-03-08T01:42:18.705Z,1.56
2024-03-08T01:55:57.199Z,1.44
2024-03-08T01:58:27.861Z,1.41
2024-03-08T02:00:57.264Z,1.39
2024-03-08T02:03:25.378Z,1.37
2024-03-08T02:05:53.685Z,1.36
2024-03-08T02:08:24.168Z,1.32
2024-03-08T02:10:52.121Z,1.28
2024-03-08T02:13:20.351Z,1.24
2024-03-08T02:16:02.571Z,1.21
2024-03-08T02:18:31.083Z,1.21
2024-03-08T02:21:03.632Z,1.18
2024-03-08T02:23:32.757Z,1.14
2024-03-08T02:26:00.784Z,1.12
2024-03-08T02:28:28.958Z,1.09
2024-03-08T02:30:57.378Z,1.07
2024-03-08T02:33:29.013Z,1.05
2024-03-08T02:35:57.724Z,1.05
2024-03-08T02:38:26.545Z,1.05
2024-03-08T02:40:55.774Z,1.03
2024-03-08T02:43:26.074Z,0.99
2024-03-08T02:45:54.298Z,0.96
2024-03-08T02:48:23.121Z,0.92
2024-03-08T02:50:53.165Z,0.89
2024-03-08T02:53:21.104Z,0.87
2024-03-08T02:55:48.870Z,0.85
2024-03-08T02:58:16.572Z,0.81
2024-03-08T03:00:44.826Z,0.81
2024-03-08T03:03:12.993Z,0.79
2024-03-08T03:05:46.212Z,0.76
2024-03-08T03:08:19.240Z,0.76
2024-03-08T03:10:47.354Z,0.76
2024-03-08T03:13:16.061Z,0.78
2024-03-08T03:15:43.809Z,0.79
2024-03-08T03:18:13.019Z,0.81
2024-03-08T03:20:44.566Z,0.82
2024-03-08T03:23:16.512Z,0.81
2024-03-08T03:25:44.988Z,0.80
2024-03-08T03:28:16.219Z,0.78
2024-03-08T03:30:48.312Z,0.79
2024-03-08T03:33:17.871Z,0.78
2024-03-08T03:35:47.046Z,0.78
2024-03-08T03:38:15.700Z,0.78
2024-03-08T03:40:43.593Z,0.78
2024-03-08T03:43:12.264Z,0.77
2024-03-08T03:45:42.678Z,0.74
2024-03-08T03:48:11.889Z,0.72
2024-03-08T03:50:41.253Z,0.70
2024-03-08T03:53:14.513Z,0.67
2024-03-08T03:55:42.421Z,0.67
2024-03-08T03:58:13.700Z,0.67
2024-03-08T04:00:41.884Z,0.66
2024-03-08T04:03:10.616Z,0.65
2024-03-08T04:05:38.638Z,0.65
2024-03-08T04:08:07.489Z,0.62
2024-03-08T04:10:35.085Z,0.57
2024-03-08T04:13:03.366Z,0.50
2024-03-08T04:15:31.779Z,0.43
2024-03-08T04:18:01.695Z,0.36
2024-03-08T04:20:29.761Z,0.31
2024-03-08T04:22:57.465Z,0.29
2024-03-08T04:25:25.075Z,0.25
2024-03-08T04:27:53.633Z,0.22
2024-03-08T04:30:22.810Z,0.19
2024-03-08T04:32:51.167Z,0.16
2024-03-08T04:35:21.498Z,0.13
2024-03-08T04:37:50.060Z,0.10
2024-03-08T04:40:17.779Z,0.08
2024-03-08T04:42:45.455Z,0.03
2024-03-08T04:45:13.425Z,-0.01
2024-03-08T04:47:41.591Z,-0.05
2024-03-08T04:50:12.784Z,-0.09
2024-03-08T04:52:40.462Z,-0.11
2024-03-08T04:55:08.506Z,-0.12
2024-03-08T04:57:36.545Z,-0.13
2024-03-08T05:00:09.649Z,-0.14
2024-03-08T05:02:40.460Z,-0.12
2024-03-08T05:05:12.882Z,-0.10
2024-03-08T05:07:41.341Z,-0.07
2024-03-08T05:10:09.848Z,-0.03
2024-03-08T05:12:40.031Z,0.02
2024-03-08T05:15:08.825Z,0.05
2024-03-08T05:17:36.762Z,0.11
2024-03-08T05:20:05.194Z,0.15
2024-03-08T05:22:33.000Z,0.17
2024-03-08T05:25:00.964Z,0.20
2024-03-08T05:27:29.530Z,0.22
2024-03-08T05:29:57.356Z,0.23
2024-03-08T05:32:26.903Z,0.23
2024-03-08T05:34:55.564Z,0.22
2024-03-08T05:37:23.303Z,0.24
2024-03-08T05:39:50.986Z,0.25
2024-03-08T05:42:18.931Z,0.25
2024-03-08T05:44:46.983Z,0.25
2024-03-08T05:47:14.659Z,0.26
2024-03-08T05:49:43.164Z,0.28
2024-03-08T05:52:10.887Z,0.30
2024-03-08T05:54:38.809Z,0.30
2024-03-08T05:57:07.713Z,0.30
2024-03-08T05:59:35.475Z,0.29
2024-03-08T06:02:03.931Z,0.27
2024-03-08T06:04:32.320Z,0.21
2024-03-08T06:07:00.177Z,0.19
2024-03-08T06:09:27.909Z,0.17
2024-03-08T06:11:56.224Z,0.16
2024-03-08T06:14:24.710Z,0.17
2024-03-08T06:16:52.662Z,0.18
2024-03-08T06:19:20.431Z,0.18
2024-03-08T06:21:48.380Z,0.16
2024-03-08T06:24:16.819Z,0.17
2024-03-08T06:26:44.692Z,0.18
2024-03-08T06:29:14.188Z,0.17
2024-03-08T06:31:42.091Z,0.16
2024-03-08T06:34:10.506Z,0.15
2024-03-08T06:36:39.623Z,0.18
2024-03-08T06:39:11.269Z,0.20
2024-03-08T06:41:39.559Z,0.21
2024-03-08T06:44:09.765Z,0.24
2024-03-08T06:46:37.696Z,0.28
2024-03-08T06:49:05.571Z,0.33
2024-03-08T06:51:33.628Z,0.37
2024-03-08T06:54:01.757Z,0.41
2024-03-08T06:56:31.110Z,0.43
2024-03-08T06:58:58.873Z,0.48
2024-03-08T07:01:26.723Z,0.56
2024-03-08T07:03:54.816Z,0.62
2024-03-08T07:06:22.595Z,0.66
2024-03-08T07:08:50.317Z,0.70
2024-03-08T07:11:19.692Z,0.75
2024-03-08T07:13:47.718Z,0.78
2024-03-08T07:16:15.573Z,0.81
2024-03-08T07:18:44.985Z,0.82
2024-03-08T07:21:13.447Z,0.86
2024-03-08T07:23:47.795Z,0.86
2024-03-08T07:26:20.357Z,0.89
2024-03-08T07:28:48.171Z,0.94
2024-03-08T07:31:24.609Z,1.02
2024-03-08T07:33:54.411Z,1.13
2024-03-08T07:36:23.491Z,1.24
2024-03-08T07:38:51.322Z,1.32
2024-03-08T07:41:19.308Z,1.39
2024-03-08T07:43:46.886Z,1.42
2024-03-08T07:46:14.797Z,1.44
2024-03-08T07:48:46.373Z,1.45
2024-03-08T07:51:19.079Z,1.48
2024-03-08T07:53:47.249Z,1.54
2024-03-08T07:56:16.865Z,1.63
2024-03-08T07:58:44.585Z,1.72
2024-03-08T08:01:19.216Z,1.80
2024-03-08T08:03:47.303Z,1.88
2024-03-08T08:06:17.071Z,1.93
2024-03-08T08:08:45.806Z,2.01
2024-03-08T08:11:13.695Z,2.06
2024-03-08T08:13:43.964Z,2.10
2024-03-08T08:16:11.776Z,2.11
2024-03-08T08:18:40.536Z,2.14
2024-03-08T08:21:08.248Z,2.19
2024-03-08T08:23:35.903Z,2.20
2024-03-08T08:26:06.056Z,2.18
2024-03-08T08:28:34.013Z,2.17
2024-03-08T08:31:01.924Z,2.17
2024-03-08T08:33:30.086Z,2.16
2024-03-08T08:35:57.910Z,2.15
2024-03-08T08:38:26.060Z,2.19
2024-03-08T08:40:53.963Z,2.29
2024-03-08T08:43:25.381Z,2.39
2024-03-08T08:45:55.830Z,2.42
2024-03-08T08:48:23.659Z,2.47
2024-03-08T08:50:53.343Z,2.49
2024-03-08T08:53:21.042Z,2.50
2024-03-08T08:55:49.122Z,2.50
2024-03-08T08:58:17.064Z,2.51
2024-03-08T09:00:45.753Z,2.55
2024-03-08T09:03:13.656Z,2.60
2024-03-08T09:05:45.996Z,2.65
2024-03-08T09:08:14.258Z,2.74
2024-03-08T09:10:42.431Z,2.82
2024-03-08T09:13:15.529Z,2.90
2024-03-08T09:15:46.829Z,2.98
2024-03-08T09:18:14.748Z,3.02
2024-03-08T09:20:42.688Z,3.11
2024-03-08T09:23:10.460Z,3.17
2024-03-08T09:25:38.803Z,3.21
2024-03-08T09:28:07.080Z,3.23
2024-03-08T09:30:36.298Z,3.30
2024-03-08T09:33:04.233Z,3.35
2024-03-08T09:35:32.706Z,3.34
2024-03-08T09:38:00.539Z,3.36
2024-03-08T09:40:29.012Z,3.38
2024-03-08T09:42:56.899Z,3.43
2024-03-08T09:45:26.420Z,3.44
2024-03-08T09:47:55.926Z,3.39
2024-03-08T09:50:23.853Z,3.30
2024-03-08T09:52:52.004Z,3.25
2024-03-08T09:55:23.525Z,3.20
2024-03-08T09:58:11.922Z,3.15
2024-03-08T10:00:39.838Z,3.06
2024-03-08T10:03:07.574Z,3.00
2024-03-08T10:05:35.833Z,2.97
2024-03-08T10:08:04.191Z,2.96
2024-03-08T10:10:32.126Z,2.93
2024-03-08T10:13:00.944Z,2.92
2024-03-08T10:15:30.420Z,2.94
2024-03-08T10:17:58.757Z,2.95
2024-03-08T10:20:27.676Z,2.98
2024-03-08T10:23:03.266Z,3.01
2024-03-08T10:25:38.264Z,3.04
2024-03-08T10:28:07.684Z,3.04
2024-03-08T10:30:35.527Z,3.03
2024-03-08T10:33:06.695Z,3.05
2024-03-08T10:35:35.011Z,3.07
2024-03-08T10:38:08.829Z,3.05
2024-03-08T10:40:40.938Z,3.03
2024-03-08T10:43:18.693Z,2.99
2024-03-08T10:45:49.632Z,2.95
2024-03-08T10:48:39.628Z,2.96
2024-03-08T10:51:09.389Z,2.96
2024-03-08T10:53:38.433Z,3.00
2024-03-08T10:56:06.632Z,3.04
2024-03-08T10:58:36.789Z,3.07
2024-03-08T11:01:06.750Z,3.08
2024-03-08T11:03:46.673Z,3.08
2024-03-08T11:06:17.457Z,3.09
2024-03-08T11:08:47.623Z,3.09
2024-03-08T11:11:34.264Z,3.09
2024-03-08T11:14:04.635Z,3.11
2024-03-08T11:16:32.485Z,3.13
2024-03-08T11:19:05.564Z,3.14
2024-03-08T11:21:40.748Z,3.15
2024-03-08T11:24:13.035Z,3.16
2024-03-08T11:26:41.919Z,3.15
2024-03-08T11:29:28.693Z,3.15
2024-03-08T11:32:12.117Z,3.16
2024-03-08T11:34:50.804Z,3.17
2024-03-08T11:37:21.932Z,3.20
2024-03-08T11:40:00.399Z,3.21
2024-03-08T11:42:28.792Z,3.21
2024-03-08T11:44:57.801Z,3.22
2024-03-08T11:47:27.562Z,3.20
2024-03-08T11:49:55.537Z,3.16
2024-03-08T11:52:26.426Z,3.17
2024-03-08T11:54:55.725Z,3.18
2024-03-08T11:57:24.936Z,3.19
2024-03-08T11:59:58.219Z,3.24
2024-03-08T12:02:26.907Z,3.28
2024-03-08T12:05:00.951Z,3.32
2024-03-08T12:07:29.148Z,3.35
2024-03-08T12:10:19.788Z,3.35
2024-03-08T12:12:49.059Z,3.32
2024-03-08T12:15:19.096Z,3.29
2024-03-08T12:17:50.504Z,3.28
2024-03-08T12:20:22.911Z,3.29
2024-03-08T12:22:54.738Z,3.34
2024-03-08T12:25:22.795Z,3.39
2024-03-08T12:27:53.406Z,3.40
2024-03-08T12:30:30.029Z,3.45
2024-03-08T12:33:00.162Z,3.49
2024-03-08T12:35:29.432Z,3.53
2024-03-08T12:37:58.772Z,3.58
2024-03-08T12:40:29.477Z,3.64
2024-03-08T12:42:57.698Z,3.74
2024-03-08T12:45:26.056Z,3.80
2024-03-08T12:47:55.311Z,3.88
2024-03-08T12:50:26.037Z,4.01
2024-03-08T12:52:54.311Z,4.03
2024-03-08T12:55:22.480Z,4.05
2024-03-08T12:57:50.780Z,4.04
2024-03-08T13:00:21.157Z,4.02
2024-03-08T13:02:49.232Z,3.97
2024-03-08T13:05:16.947Z,3.94
2024-03-08T13:07:47.607Z,3.92
2024-03-08T13:10:17.374Z,3.93
2024-03-08T13:12:45.416Z,3.93
2024-03-08T13:15:21.440Z,3.96
2024-03-08T13:17:50.475Z,4.03
2024-03-08T13:20:25.366Z,4.08
2024-03-08T13:23:01.386Z,4.23
2024-03-08T13:25:29.982Z,4.31
2024-03-08T13:28:00.260Z,4.36
2024-03-08T13:30:28.797Z,4.38
2024-03-08T13:32:56.743Z,4.38
2024-03-08T13:35:28.689Z,4.41
2024-03-08T13:37:56.832Z,4.42
2024-03-08T13:40:24.815Z,4.44
2024-03-08T13:42:53.242Z,4.44
2024-03-08T13:45:25.431Z,4.44
2024-03-08T13:47:56.742Z,4.43
2024-03-08T13:50:25.047Z,4.43
2024-03-08T13:52:55.494Z,4.41
2024-03-08T13:55:28.979Z,4.41
2024-03-08T13:57:59.003Z,4.45
2024-03-08T14:00:34.239Z,4.49
2024-03-08T14:03:02.102Z,4.51
2024-03-08T14:05:35.975Z,4.54
2024-03-08T14:08:04.798Z,4.57
2024-03-08T14:10:32.711Z,4.59
2024-03-08T14:13:01.050Z,4.63
2024-03-08T14:15:28.766Z,4.65
2024-03-08T14:17:57.178Z,4.65
2024-03-08T14:20:26.894Z,4.67
2024-03-08T14:22:58.465Z,4.74
2024-03-08T14:25:26.740Z,4.82
2024-03-08T14:27:55.253Z,4.87
2024-03-08T14:30:39.764Z,4.88
2024-03-08T14:33:10.575Z,4.91
2024-03-08T14:35:39.848Z,4.87
2024-03-08T14:38:11.631Z,4.84
2024-03-08T14:40:40.024Z,4.79
2024-03-08T14:43:07.795Z,4.75
2024-03-08T14:45:36.105Z,4.72
2024-03-08T14:48:06.128Z,4.68
2024-03-08T14:50:34.656Z,4.63
2024-03-08T14:53:02.750Z,4.60
2024-03-08T14:55:31.657Z,4.58
2024-03-08T14:57:59.627Z,4.52
2024-03-08T15:00:36.853Z,4.49
2024-03-08T15:03:08.443Z,4.47
2024-03-08T15:05:39.974Z,4.44
2024-03-08T15:08:12.238Z,4.44
2024-03-08T15:10:42.451Z,4.44
2024-03-08T15:13:16.387Z,4.44
2024-03-08T15:15:44.917Z,4.47
2024-03-08T15:18:13.480Z,4.45
2024-03-08T15:20:42.433Z,4.42
2024-03-08T15:23:11.283Z,4.39
2024-03-08T15:25:43.108Z,4.36
2024-03-08T15:28:15.957Z,4.32
2024-03-08T15:30:48.293Z,4.31
2024-03-08T15:33:21.661Z,4.32
2024-03-08T15:35:51.665Z,4.29
2024-03-08T15:38:22.822Z,4.24
2024-03-08T15:40:52.601Z,4.21
2024-03-08T15:43:20.825Z,4.18
2024-03-08T15:45:48.880Z,4.16
2024-03-08T15:48:17.452Z,4.13
2024-03-08T15:50:45.455Z,4.10
2024-03-08T15:53:14.486Z,4.07
2024-03-08T15:55:42.519Z,4.02
2024-03-08T15:58:13.822Z,3.98
2024-03-08T16:00:48.494Z,3.94
2024-03-08T16:03:16.915Z,3.87
2024-03-08T16:05:49.509Z,3.84
2024-03-08T16:08:21.230Z,3.80
2024-03-08T16:10:52.181Z,3.76
2024-03-08T16:13:21.980Z,3.73
2024-03-08T16:15:52.180Z,3.71
2024-03-08T16:18:22.409Z,3.66
2024-03-08T16:20:54.839Z,3.61
2024-03-08T16:23:24.114Z,3.55
2024-03-08T16:25:53.853Z,3.51
2024-03-08T16:28:29.528Z,3.47
2024-03-08T16:30:57.412Z,3.42
2024-03-08T16:33:25.703Z,3.39
2024-03-08T16:35:54.905Z,3.35
2024-03-08T16:38:24.285Z,3.29
2024-03-08T16:40:56.643Z,3.26
2024-03-08T16:43:24.518Z,3.21
2024-03-08T16:45:52.348Z,3.18
2024-03-08T16:48:20.334Z,3.16
2024-03-08T16:50:48.121Z,3.15
2024-03-08T16:53:16.203Z,3.12
2024-03-08T16:55:45.490Z,3.09
2024-03-08T16:58:16.394Z,3.07
2024-03-08T17:00:44.539Z,3.05
2024-03-08T17:03:14.886Z,3.05
2024-03-08T17:05:46.773Z,3.03
2024-03-08T17:08:16.559Z,3.01
2024-03-08T17:10:45.195Z,3.00
2024-03-08T17:13:16.059Z,2.98
2024-03-08T17:15:43.956Z,2.96
2024-03-08T17:18:11.853Z,2.95
2024-03-08T17:20:42.232Z,2.93
2024-03-08T17:23:14.516Z,2.93
2024-03-08T17:25:44.520Z,2.91
2024-03-08T17:28:13.507Z,2.88
2024-03-08T17:30:45.454Z,2.86
2024-03-08T17:33:16.803Z,2.83
2024-03-08T17:35:46.032Z,2.81
2024-03-08T17:38:14.758Z,2.80
2024-03-08T17:40:44.163Z,2.78
2024-03-08T17:43:13.754Z,2.77
2024-03-08T17:45:47.490Z,2.76
2024-03-08T17:48:18.186Z,2.74
2024-03-08T17:50:50.882Z,2.74
2024-03-08T17:53:19.908Z,2.73
2024-03-08T17:55:51.879Z,2.73
2024-03-08T17:58:21.451Z,2.70
2024-03-08T18:00:53.287Z,2.69
2024-03-08T18:03:28.816Z,2.68
2024-03-08T18:05:58.670Z,2.67
2024-03-08T18:08:26.406Z,2.66
2024-03-08T18:10:54.556Z,2.64
2024-03-08T18:13:22.622Z,2.60
2024-03-08T18:15:50.629Z,2.60
2024-03-08T18:18:19.199Z,2.59
2024-03-08T18:20:49.451Z,2.58
2024-03-08T18:23:20.522Z,2.57
2024-03-08T18:25:48.784Z,2.56
2024-03-08T18:28:18.330Z,2.57
2024-03-08T18:30:50.073Z,2.57
2024-03-08T18:33:19.013Z,2.58
2024-03-08T18:35:48.598Z,2.56
2024-03-08T18:38:20.364Z,2.54
2024-03-08T18:40:49.317Z,2.53
2024-03-08T18:43:18.712Z,2.52
2024-03-08T18:45:46.935Z,2.50
2024-03-08T18:48:15.512Z,2.49
2024-03-08T18:50:46.468Z,2.48
2024-03-08T18:53:14.826Z,2.45
2024-03-08T18:55:44.896Z,2.42
2024-03-08T18:58:13.167Z,2.39
2024-03-08T19:00:43.851Z,2.37
2024-03-08T19:03:12.565Z,2.34
2024-03-08T19:05:46.422Z,2.32
2024-03-08T19:08:15.681Z,2.30
2024-03-08T19:10:44.832Z,2.29
2024-03-08T19:13:15.286Z,2.27
2024-03-08T19:15:44.026Z,2.25
2024-03-08T19:18:14.778Z,2.24
2024-03-08T19:20:44.266Z,2.23
2024-03-08T19:23:12.763Z,2.22
2024-03-08T19:25:45.919Z,2.23
2024-03-08T19:28:15.027Z,2.24
2024-03-08T19:30:43.410Z,2.26
2024-03-08T19:33:15.624Z,2.26
2024-03-08T19:35:44.209Z,2.26
2024-03-08T19:38:12.931Z,2.27
2024-03-08T19:40:45.220Z,2.27
2024-03-08T19:43:16.875Z,2.28
2024-03-08T19:45:46.506Z,2.27
2024-03-08T19:48:19.555Z,2.27
2024-03-08T19:50:48.060Z,2.27
2024-03-08T19:53:17.884Z,2.27
2024-03-08T19:55:51.714Z,2.27
2024-03-08T19:58:21.495Z,2.28
2024-03-08T20:00:50.521Z,2.28
2024-03-08T20:03:23.714Z,2.28
2024-03-08T20:05:55.215Z,2.26
2024-03-08T20:08:29.773Z,2.25
2024-03-08T20:11:05.087Z,2.24
2024-03-08T20:13:36.020Z,2.23
2024-03-08T20:16:05.601Z,2.22
2024-03-08T20:18:36.050Z,2.22
2024-03-08T20:21:04.704Z,2.20
2024-03-08T20:23:33.193Z,2.20
2024-03-08T20:26:03.722Z,2.20
2024-03-08T20:28:33.895Z,2.20
2024-03-08T20:31:02.353Z,2.20
2024-03-08T20:33:33.238Z,2.19
2024-03-08T20:36:02.418Z,2.19
2024-03-08T20:38:30.874Z,2.20
2024-03-08T20:40:58.881Z,2.21
2024-03-08T20:43:26.568Z,2.20
2024-03-08T20:45:55.175Z,2.21
2024-03-08T20:48:23.280Z,2.20
2024-03-08T20:50:52.924Z,2.22
2024-03-08T20:53:21.384Z,2.24
2024-03-08T20:55:50.734Z,2.24
2024-03-08T20:58:20.138Z,2.24
2024-03-08T21:01:00.433Z,2.24
2024-03-08T21:03:29.708Z,2.24
2024-03-08T21:05:59.505Z,2.26
2024-03-08T21:08:28.851Z,2.27
2024-03-08T21:10:58.379Z,2.28
2024-03-08T21:13:27.584Z,2.29
2024-03-08T21:15:56.534Z,2.29
2024-03-08T21:18:26.536Z,2.31
2024-03-08T21:20:55.142Z,2.32
2024-03-08T21:23:23.058Z,2.32
2024-03-08T21:25:50.929Z,2.33
2024-03-08T21:28:29.092Z,2.33
2024-03-08T21:30:57.815Z,2.35
2024-03-08T21:33:26.036Z,2.36
2024-03-08T21:35:53.782Z,2.37
2024-03-08T21:38:22.229Z,2.38
2024-03-08T21:40:57.841Z,2.38
2024-03-08T21:43:34.617Z,2.39
2024-03-08T21:46:02.643Z,2.41
2024-03-08T21:48:31.110Z,2.41
2024-03-08T21:50:59.511Z,2.43
2024-03-08T21:53:33.725Z,2.44
2024-03-08T21:56:04.090Z,2.46
2024-03-08T21:58:34.374Z,2.45
2024-03-08T22:01:02.729Z,2.47
2024-03-08T22:03:32.786Z,2.47
2024-03-08T22:06:00.930Z,2.48
2024-03-08T22:08:28.664Z,2.48
2024-03-08T22:10:57.213Z,2.48
2024-03-08T22:13:25.481Z,2.47
2024-03-08T22:15:53.461Z,2.48
2024-03-08T22:18:21.246Z,2.48
2024-03-08T22:20:49.017Z,2.48
2024-03-08T22:23:19.396Z,2.49
2024-03-08T22:25:48.480Z,2.48
2024-03-08T22:28:18.029Z,2.48
2024-03-08T22:30:48.092Z,2.49
2024-03-08T22:33:16.060Z,2.49
2024-03-08T22:35:43.936Z,2.49
2024-03-08T22:38:12.971Z,2.49
2024-03-08T22:40:40.877Z,2.49
2024-03-08T22:43:08.717Z,2.50
2024-03-08T22:45:36.526Z,2.50
2024-03-08T22:48:05.253Z,2.50
2024-03-08T22:50:34.207Z,2.49
2024-03-08T22:53:02.549Z,2.49
2024-03-08T22:55:31.882Z,2.49
2024-03-08T22:57:59.803Z,2.49
2024-03-08T23:00:28.482Z,2.47
2024-03-08T23:02:58.372Z,2.47
2024-03-08T23:05:29.742Z,2.45
2024-03-08T23:08:01.434Z,2.43
2024-03-08T23:10:31.151Z,2.42
2024-03-08T23:13:00.102Z,2.42
2024-03-08T23:15:31.230Z,2.41
2024-03-08T23:17:59.723Z,2.41
2024-03-08T23:20:34.277Z,2.40
2024-03-08T23:23:07.294Z,2.39
2024-03-08T23:25:36.684Z,2.38
2024-03-08T23:28:08.406Z,2.38
2024-03-08T23:30:45.871Z,2.38
2024-03-08T23:33:14.736Z,2.39
2024-03-08T23:35:47.676Z,2.38
2024-03-08T23:38:16.265Z,2.37
2024-03-08T23:40:44.456Z,2.37
2024-03-08T23:43:13.928Z,2.36
2024-03-08T23:45:41.890Z,2.35
2024-03-08T23:48:11.778Z,2.30
2024-03-08T23:50:39.784Z,2.32
2024-03-08T23:53:08.403Z,2.32
2024-03-08T23:55:39.546Z,2.32
2024-03-08T23:58:10.815Z,2.32
